Briefing drone pour Deols

Rechercher une autre localisation

Conditions de vol :


Nous sommes le : Samedi 28 mai 2022
Il est 19:34 UTC (21:34 LT)

Lever de soleil : 03:39 UTC (05:39 LT)
Coucher de soleil : 20:01 UTC (22:01 LT)

Météo

L'essentiel des conditions de vol

VIGILANCE MÉTÉO FRANCE - Indre (36)
Pas de vigilances particulieres
METAR de LFLX
LFLX 281930Z AUTO 03006KT CAVOK 15/08 Q1017 NOSIG

Date d'émission: 28/05/2022
Heure d'émission: 19:30 UTC
Vent: 030° pour 6 KT (11 km/h)
Visibilité horizontale: > 10 km
Plafond : Plafond et visibilité OK (CAVOK)
Température: 15 °C
Point de rosée: 8 °C
Humidité: 63%
Pression (QNH): 1017 hPa
Conditions: Pas de changement dans les 2 heures (NOSIG)
TAF de LFLX
LFLX 281700Z 2818/2924 02010KT CAVOK

Conditions prévues :

Heure d'émission : Bulletin éffectué le 28 à 18:00 UTC
Prévision : Valide du 28 a 18:00 UTC au 29 a 23:59 UTC
Vent : 20° pour 10 KT (19 km/h)
Visibilité : > 10 km
WEBCAM POUR DEOLS

Réglementation

Voler en sécurité

CARTES AERONAUTIQUE 1/500.000
CARTES VAC (LFLX)
SUP AIP




Chargement des AIP...
NOTAM (DEOLS + Terrain à proximité / FIR )




Chargement des NOTAMS...
CONTACT PREFECTURE 36


Avertissement : Les données mises à disposition sont indicatives. Oxygène Drone ne pourra être tenu responsable de dégâts causés aux biens et aux personnes.